Check out our new BloomSky Weather System.

Active alerts


No alerts


Thunder radar  blitzortung!


Rain radar more information rain snow radar


Visit our other weather sites:

Template documentation
and downloads

And another site



Weather Underground History page Text

Daily Summary for Nil La, TWC- Units:  Metric    English   Both
« Previous Day
Next Day »
Daily Weekly Monthly Yearly Custom
  High: Low: Average:
Temperature: -17.8 °C 23 °C 25.4 °C
Dew Point: -17.8 °C 23 °C 25 °C
Humidity: Humidity % 81 % 98 %
Wind Speed: 0 km/h 0 km/h 2.1 km/h
Wind Gust: 0 km/h - -
Wind:- - SSE
Pressure: 0 hPa 1011.1 hPa -
Precipitation: 50.55 mm    
Historical Graphs
 
 
Tabular Data for Nil La, TWC-
Time Temperature Dew Point Pressure Wind Wind Speed Wind Gust Humidity Rainfall Rate (Hourly)
-17.8 °C -17.8 °C 0 hPa Calm     Humidity % 0 mm
00:04 25.4 °C 25.4 °C 1013.4 hPa SE 1.6 km/h 4.8 km/h 100 % 0 mm
00:09 25.4 °C 25.4 °C 1013.4 hPa Calm   3.2 km/h 100 % 0 mm
00:14 25.5 °C 25.5 °C 1013.8 hPa Calm   3.2 km/h 100 % 0 mm
00:19 25.5 °C 25.5 °C 1013.8 hPa ESE 1.6 km/h 3.2 km/h 100 % 0 mm
00:24 25.5 °C 25.5 °C 1013.4 hPa ESE 1.6 km/h 3.2 km/h 100 % 0 mm
00:29 25.5 °C 25.5 °C 1013.4 hPa Calm   3.2 km/h 100 % 0 mm
00:34 25.5 °C 25.5 °C 1013.4 hPa SE 1.6 km/h 3.2 km/h 100 % 0 mm
00:39 25.6 °C 25.6 °C 1013.4 hPa East 1.6 km/h 3.2 km/h 100 % 0 mm
00:44 25.6 °C 25.6 °C 1013.4 hPa Calm   3.2 km/h 100 % 0 mm
00:49 25.6 °C 25.6 °C 1013.4 hPa Calm   3.2 km/h 100 % 0 mm
00:54 25.6 °C 25.6 °C 1013.1 hPa SE 1.6 km/h 3.2 km/h 100 % 0 mm
00:59 25.6 °C 25.6 °C 1013.1 hPa Calm   3.2 km/h 100 % 0 mm
01:04 25.6 °C 25.6 °C 1013.1 hPa Calm   3.2 km/h 100 % 0 mm
01:09 25.6 °C 25.6 °C 1013.1 hPa Calm   3.2 km/h 100 % 0 mm
01:14 25.6 °C 25.6 °C 1013.1 hPa SE 1.6 km/h 3.2 km/h 100 % 0 mm
01:19 25.6 °C 25.6 °C 1013.1 hPa East 1.6 km/h 3.2 km/h 100 % 0 mm
01:24 25.6 °C 25.6 °C 1013.1 hPa ESE 3.2 km/h 3.2 km/h 100 % 0 mm
01:29 25.7 °C 25.7 °C 1012.8 hPa East 1.6 km/h 3.2 km/h 100 % 0 mm
01:34 25.7 °C 25.7 °C 1012.8 hPa East 1.6 km/h 3.2 km/h 100 % 0 mm
01:39 25.7 °C 25.7 °C 1012.8 hPa ESE 3.2 km/h 3.2 km/h 100 % 0 mm
01:44 25.7 °C 25.7 °C 1012.8 hPa ESE 1.6 km/h 3.2 km/h 100 % 0 mm
01:49 25.7 °C 25.7 °C 1012.4 hPa ENE 3.2 km/h 3.2 km/h 100 % 0 mm
01:54 25.7 °C 25.7 °C 1012.4 hPa ESE 4.8 km/h 6.4 km/h 100 % 0 mm
01:59 25.8 °C 25.8 °C 1012.4 hPa ESE 1.6 km/h 6.4 km/h 100 % 0 mm
02:04 25.8 °C 25.8 °C 1012.4 hPa ESE 4.8 km/h 6.4 km/h 100 % 0 mm
02:09 25.8 °C 25.8 °C 1012.4 hPa ESE 4.8 km/h 6.4 km/h 100 % 0 mm
02:14 25.9 °C 25.9 °C 1012.4 hPa SE 1.6 km/h 6.4 km/h 100 % 0 mm
02:19 25.9 °C 25.9 °C 1012.1 hPa SSE 1.6 km/h 6.4 km/h 100 % 0 mm
02:24 25.9 °C 25.9 °C 1012.1 hPa SE 1.6 km/h 6.4 km/h 100 % 0 mm
02:29 25.9 °C 25.9 °C 1012.1 hPa South 1.6 km/h 6.4 km/h 100 % 0 mm
02:34 25.9 °C 25.9 °C 1012.1 hPa SSW 1.6 km/h 4.8 km/h 100 % 0 mm
02:39 25.9 °C 25.9 °C 1012.1 hPa SSE 1.6 km/h 3.2 km/h 100 % 0 mm
02:44 25.8 °C 25.8 °C 1012.1 hPa SSW 1.6 km/h 3.2 km/h 100 % 0 mm
02:49 25.8 °C 25.8 °C 1012.1 hPa Calm   3.2 km/h 100 % 0 mm
02:54 25.8 °C 25.8 °C 1012.1 hPa Calm   3.2 km/h 100 % 0 mm
02:59 25.7 °C 25.7 °C 1012.1 hPa SSE 1.6 km/h 3.2 km/h 100 % 0 mm
03:04 25.7 °C 25.7 °C 1012.1 hPa SE 1.6 km/h 3.2 km/h 100 % 0 mm
03:09 25.7 °C 25.7 °C 1012.1 hPa SSE 1.6 km/h 3.2 km/h 100 % 0 mm
03:14 25.7 °C 25.7 °C 1012.1 hPa Calm   1.6 km/h 100 % 0 mm
03:19 25.7 °C 25.7 °C 1011.7 hPa Calm   1.6 km/h 100 % 0 mm
03:24 25.6 °C 25.6 °C 1012.1 hPa Calm   1.6 km/h 100 % 0 mm
03:29 25.6 °C 25.6 °C 1012.1 hPa Calm   1.6 km/h 100 % 0 mm
03:34 25.6 °C 25.6 °C 1011.7 hPa Calm   1.6 km/h 100 % 0 mm
03:39 25.6 °C 25.6 °C 1011.7 hPa Calm   1.6 km/h 100 % 0 mm
03:44 25.6 °C 25.6 °C 1011.7 hPa Calm   1.6 km/h 100 % 0 mm
03:49 25.6 °C 25.6 °C 1011.7 hPa Calm   1.6 km/h 100 % 0 mm
03:54 25.6 °C 25.6 °C 1011.7 hPa SSE 1.6 km/h 1.6 km/h 100 % 0 mm
03:59 25.6 °C 25.6 °C 1011.7 hPa ESE 3.2 km/h 1.6 km/h 100 % 0 mm
04:04 25.7 °C 25.7 °C 1011.7 hPa Calm   3.2 km/h 100 % 0 mm
04:09 25.7 °C 25.7 °C 1011.7 hPa SSE 3.2 km/h 3.2 km/h 100 % 0 mm
04:14 25.7 °C 25.7 °C 1011.7 hPa ESE 1.6 km/h 3.2 km/h 100 % 0 mm
04:19 25.8 °C 25.8 °C 1011.7 hPa Calm   4.8 km/h 100 % 0 mm
04:24 25.8 °C 25.8 °C 1011.7 hPa Calm   4.8 km/h 100 % 0 mm
04:29 25.8 °C 25.8 °C 1011.7 hPa Calm   4.8 km/h 100 % 0 mm
04:34 25.8 °C 25.8 °C 1011.7 hPa Calm   3.2 km/h 100 % 0 mm
04:39 25.8 °C 25.8 °C 1011.7 hPa Calm   3.2 km/h 100 % 0 mm
04:44 25.8 °C 25.8 °C 1011.7 hPa Calm   3.2 km/h 100 % 0 mm
04:49 25.8 °C 25.8 °C 1011.7 hPa Calm   3.2 km/h 100 % 0 mm
04:54 25.8 °C 25.8 °C 1011.7 hPa Calm   1.6 km/h 100 % 0 mm
04:59 25.8 °C 25.8 °C 1011.7 hPa Calm   1.6 km/h 100 % 0 mm
05:04 25.8 °C 25.8 °C 1011.7 hPa Calm   1.6 km/h 100 % 0 mm
05:09 25.8 °C 25.8 °C 1011.7 hPa Calm   1.6 km/h 100 % 0 mm
05:14 25.7 °C 25.7 °C 1011.7 hPa Calm   1.6 km/h 100 % 0 mm
05:19 25.7 °C 25.7 °C 1011.7 hPa Calm   1.6 km/h 100 % 0 mm
05:24 25.8 °C 25.8 °C 1011.7 hPa Calm     100 % 0 mm
05:29 25.8 °C 25.8 °C 1011.7 hPa Calm     100 % 0 mm
05:34 25.9 °C 25.9 °C 1012.1 hPa ESE 3.2 km/h 1.6 km/h 100 % 0 mm
05:39 26 °C 26 °C 1012.1 hPa Calm   3.2 km/h 100 % 0 mm
05:44 26.1 °C 26.1 °C 1012.1 hPa Calm   3.2 km/h 100 % 0 mm
05:49 26.1 °C 26.1 °C 1012.1 hPa Calm   3.2 km/h 100 % 0 mm
05:54 26.2 °C 26.2 °C 1012.1 hPa ESE 1.6 km/h 1.6 km/h 100 % 0 mm
05:59 26.2 °C 26.2 °C 1011.7 hPa Calm   3.2 km/h 100 % 0 mm
06:04 26.2 °C 26.2 °C 1011.7 hPa Calm   3.2 km/h 100 % 0 mm
06:09 26.2 °C 26.2 °C 1012.1 hPa Calm   3.2 km/h 100 % 0 mm
06:14 26.2 °C 26.2 °C 1012.1 hPa Calm   3.2 km/h 100 % 0 mm
06:19 26.2 °C 26.2 °C 1012.1 hPa Calm   1.6 km/h 100 % 0 mm
06:24 26.1 °C 26.1 °C 1012.1 hPa Calm   1.6 km/h 100 % 0 mm
06:29 26.1 °C 26.1 °C 1012.1 hPa Calm   1.6 km/h 100 % 0 mm
06:34 26.1 °C 26.1 °C 1012.1 hPa Calm   1.6 km/h 100 % 0 mm
06:39 26.1 °C 26.1 °C 1012.1 hPa ESE 1.6 km/h 1.6 km/h 100 % 0 mm
06:44 26.1 °C 26.1 °C 1012.1 hPa Calm   1.6 km/h 100 % 0 mm
06:49 26.1 °C 26.1 °C 1012.1 hPa Calm   1.6 km/h 100 % 0 mm
06:54 26.1 °C 26.1 °C 1012.1 hPa Calm   1.6 km/h 100 % 0 mm
06:59 26.1 °C 26.1 °C 1012.1 hPa ESE 1.6 km/h 1.6 km/h 100 % 0 mm
07:04 26.1 °C 26.1 °C 1012.4 hPa Calm   1.6 km/h 100 % 0 mm
07:09 26.1 °C 26.1 °C 1012.1 hPa Calm   1.6 km/h 100 % 0 mm
07:14 26.1 °C 26.1 °C 1012.4 hPa Calm   1.6 km/h 100 % 0 mm
07:19 26.1 °C 26.1 °C 1012.4 hPa Calm   1.6 km/h 100 % 0 mm
07:24 26.2 °C 26.2 °C 1012.4 hPa Calm   1.6 km/h 100 % 0 mm
07:29 26.2 °C 26.2 °C 1012.4 hPa SSE 1.6 km/h 1.6 km/h 100 % 0 mm
07:34 26.2 °C 26.2 °C 1012.4 hPa SSE 1.6 km/h 1.6 km/h 100 % 0 mm
07:39 26.2 °C 26.2 °C 1012.1 hPa SE 1.6 km/h 1.6 km/h 100 % 0 mm
07:44 26.2 °C 26.2 °C 1012.4 hPa Calm   3.2 km/h 100 % 0 mm
07:49 26.3 °C 26.3 °C 1012.4 hPa SE 1.6 km/h 4.8 km/h 100 % 0 mm
07:54 26.3 °C 26.3 °C 1012.4 hPa SSE 3.2 km/h 4.8 km/h 100 % 0 mm
07:59 26.4 °C 26.4 °C 1012.4 hPa ESE 1.6 km/h 4.8 km/h 100 % 0 mm
08:04 26.4 °C 26.4 °C 1012.8 hPa SE 3.2 km/h 4.8 km/h 100 % 0 mm
08:09 26.4 °C 26.4 °C 1012.8 hPa Calm   6.4 km/h 100 % 0 mm
08:14 26.5 °C 26.5 °C 1012.8 hPa South 1.6 km/h 6.4 km/h 100 % 0 mm
08:19 26.6 °C 26.6 °C 1012.8 hPa Calm   6.4 km/h 100 % 0 mm
08:24 26.7 °C 26.7 °C 1012.4 hPa SSE 1.6 km/h 4.8 km/h 100 % 0 mm
08:29 26.7 °C 26.7 °C 1012.8 hPa ESE 3.2 km/h 3.2 km/h 100 % 0 mm
08:34 26.8 °C 26.8 °C 1012.8 hPa SSE 1.6 km/h 4.8 km/h 100 % 0 mm
08:39 27 °C 27 °C 1012.8 hPa South 3.2 km/h 4.8 km/h 100 % 0 mm
08:44 27.1 °C 27.1 °C 1012.8 hPa South 4.8 km/h 4.8 km/h 100 % 0 mm
08:49 27.2 °C 27.2 °C 1012.8 hPa South 4.8 km/h 4.8 km/h 100 % 0 mm
08:54 27.2 °C 27.2 °C 1012.8 hPa South 3.2 km/h 4.8 km/h 100 % 0 mm
08:59 27.3 °C 27.3 °C 1012.8 hPa SSE 1.6 km/h 4.8 km/h 100 % 0 mm
09:04 27.4 °C 27.4 °C 1012.8 hPa SSE 3.2 km/h 6.4 km/h 100 % 0 mm
09:09 27.4 °C 27.4 °C 1012.8 hPa SSW 8 km/h 9.7 km/h 100 % 0 mm
09:14 27.4 °C 27.2 °C 1012.8 hPa SSE 4.8 km/h 9.7 km/h 99 % 0 mm
09:19 27.5 °C 27.3 °C 1012.8 hPa SE 8 km/h 11.3 km/h 99 % 0 mm
09:24 27.6 °C 27.4 °C 1012.8 hPa SSE 1.6 km/h 11.3 km/h 99 % 0 mm
09:29 27.6 °C 27.3 °C 1012.8 hPa SSE 3.2 km/h 11.3 km/h 98 % 0 mm
09:34 27.7 °C 27.4 °C 1012.8 hPa SSE 3.2 km/h 11.3 km/h 98 % 0 mm
09:39 27.7 °C 27.2 °C 1012.8 hPa SSE 4.8 km/h 9.7 km/h 97 % 0 mm
09:44 27.8 °C 27.3 °C 1012.8 hPa SSE 6.4 km/h 11.3 km/h 97 % 0 mm
09:49 27.9 °C 27.4 °C 1012.8 hPa SSW 1.6 km/h 11.3 km/h 97 % 0 mm
09:54 28.1 °C 27.6 °C 1012.8 hPa Calm   11.3 km/h 97 % 0 mm
09:59 28.2 °C 27.5 °C 1012.8 hPa South 4.8 km/h 9.7 km/h 96 % 0 mm
10:04 28.4 °C 27.5 °C 1012.8 hPa NNW 3.2 km/h 9.7 km/h 95 % 0 mm
10:09 28.4 °C 27.3 °C 1012.8 hPa SSE 1.6 km/h 8 km/h 94 % 0 mm
10:14 28.5 °C 27.3 °C 1012.8 hPa SSW 3.2 km/h 11.3 km/h 93 % 0 mm
10:19 28.6 °C 27.5 °C 1012.8 hPa SSW 1.6 km/h 11.3 km/h 94 % 0 mm
10:24 28.7 °C 27.5 °C 1012.8 hPa SE 8 km/h 11.3 km/h 93 % 0 mm
10:29 28.7 °C 27.3 °C 1012.8 hPa SE 9.7 km/h 12.9 km/h 92 % 0 mm
10:34 28.7 °C 27.1 °C 1012.8 hPa SE 6.4 km/h 12.9 km/h 91 % 0 mm
10:39 28.6 °C 27 °C 1012.8 hPa ESE 4.8 km/h 12.9 km/h 91 % 0 mm
10:44 28.3 °C 26.5 °C 1012.8 hPa SE 8 km/h 12.9 km/h 90 % 0 mm
10:49 27.8 °C 26 °C 1012.8 hPa East 4.8 km/h 11.3 km/h 90 % 0 mm
10:54 27.7 °C 25.9 °C 1012.8 hPa SE 4.8 km/h 16.1 km/h 90 % 0 mm
10:59 27.7 °C 26.1 °C 1012.8 hPa ESE 3.2 km/h 16.1 km/h 91 % 0 mm
11:04 27.7 °C 26.1 °C 1012.8 hPa SSE 4.8 km/h 16.1 km/h 91 % 0 mm
11:09 27.9 °C 26.5 °C 1012.8 hPa SE 3.2 km/h 9.7 km/h 92 % 0 mm
11:14 28.3 °C 26.7 °C 1012.4 hPa South 4.8 km/h 9.7 km/h 91 % 0 mm
11:19 28.6 °C 26.6 °C 1012.8 hPa SSE 4.8 km/h 8 km/h 89 % 0 mm
11:24 28.8 °C 26.6 °C 1012.4 hPa SE 1.6 km/h 11.3 km/h 88 % 0 mm
11:29 29 °C 26.8 °C 1012.8 hPa SE 6.4 km/h 11.3 km/h 88 % 0 mm
11:34 29.2 °C 26.8 °C 1012.4 hPa East 6.4 km/h 11.3 km/h 87 % 0 mm
11:39 29.4 °C 27 °C 1012.8 hPa South 8 km/h 9.7 km/h 87 % 0 mm
11:44 29.6 °C 27 °C 1012.8 hPa South 8 km/h 12.9 km/h 86 % 0 mm
11:49 29.5 °C 26.9 °C 1012.8 hPa East 4.8 km/h 14.5 km/h 86 % 0 mm
11:54 29.5 °C 26.9 °C 1012.8 hPa SE 4.8 km/h 14.5 km/h 86 % 0 mm
11:59 29.6 °C 27 °C 1012.8 hPa ESE 4.8 km/h 14.5 km/h 86 % 0 mm
12:04 29.6 °C 26.8 °C 1012.4 hPa SE 11.3 km/h 12.9 km/h 85 % 0 mm
12:09 29.6 °C 27 °C 1012.4 hPa SE 8 km/h 12.9 km/h 86 % 0 mm
12:14 29.6 °C 27.2 °C 1012.1 hPa East 4.8 km/h 14.5 km/h 87 % 0 mm
12:19 29.7 °C 27.1 °C 1012.1 hPa Calm   14.5 km/h 86 % 0 mm
12:24 29.9 °C 26.9 °C 1012.1 hPa ESE 9.7 km/h 14.5 km/h 84 % 0 mm
12:29 30 °C 27 °C 1012.1 hPa ESE 8 km/h 17.7 km/h 84 % 0 mm
12:34 30.2 °C 27.2 °C 1012.1 hPa SSW 4.8 km/h 17.7 km/h 84 % 0 mm
12:39 30.2 °C 26.8 °C 1012.1 hPa ESE 11.3 km/h 17.7 km/h 82 % 0 mm
12:44 30.2 °C 27 °C 1012.4 hPa South 4.8 km/h 16.1 km/h 83 % 0 mm
12:49 30.3 °C 27.1 °C 1012.1 hPa SSW 4.8 km/h 16.1 km/h 83 % 0 mm
12:54 30.2 °C 27 °C 1012.1 hPa ESE 12.9 km/h 16.1 km/h 83 % 0 mm
12:59 29.9 °C 26.7 °C 1012.4 hPa Calm   12.9 km/h 83 % 0 mm
13:04 29.2 °C 25.6 °C 1012.4 hPa West 4.8 km/h 12.9 km/h 81 % 0 mm
13:09 28 °C 24.8 °C 1012.4 hPa NW 6.4 km/h 12.9 km/h 83 % 0 mm
13:14 27.3 °C 24.7 °C 1012.4 hPa NW 9.7 km/h 12.9 km/h 86 % 0 mm
13:19 27 °C 24.8 °C 1012.4 hPa NW 6.4 km/h 12.9 km/h 88 % 0 mm
13:24 26.7 °C 24.7 °C 1012.4 hPa NNW 3.2 km/h 12.9 km/h 89 % 0 mm
13:29 26.5 °C 24.5 °C 1012.4 hPa NNW 6.4 km/h 9.7 km/h 89 % 0 mm
13:34 26.4 °C 24.8 °C 1012.1 hPa WNW 6.4 km/h 9.7 km/h 91 % 0 mm
13:39 26.3 °C 24.7 °C 1012.1 hPa Calm   11.3 km/h 91 % 0 mm
13:44 26.3 °C 24.7 °C 1012.4 hPa WSW 3.2 km/h 11.3 km/h 91 % 0 mm
13:49 26 °C 24.4 °C 1012.4 hPa SSW 1.6 km/h 12.9 km/h 91 % 0 mm
13:54 25.5 °C 24.1 °C 1012.8 hPa West 1.6 km/h 12.9 km/h 92 % 0.76 mm
13:59 24.4 °C 23.7 °C 1012.4 hPa West 1.6 km/h 24.1 km/h 96 % 7.62 mm
14:04 23.7 °C 23.4 °C 1012.4 hPa NW 3.2 km/h 24.1 km/h 98 % 16.76 mm
14:09 23.6 °C 23.4 °C 1012.1 hPa WNW 8 km/h 24.1 km/h 99 % 25.4 mm
14:14 23.6 °C 23.6 °C 1012.1 hPa East 1.6 km/h 8 km/h 100 % 31.75 mm
14:19 23.5 °C 23.5 °C 1012.1 hPa Calm   8 km/h 100 % 33.53 mm
14:24 23.6 °C 23.6 °C 1012.1 hPa Calm   8 km/h 100 % 35.05 mm
14:29 23.7 °C 23.7 °C 1012.1 hPa Calm   6.4 km/h 100 % 35.31 mm
14:34 23.8 °C 23.8 °C 1011.7 hPa SSE 1.6 km/h 1.6 km/h 100 % 35.31 mm
14:39 23.8 °C 23.8 °C 1011.7 hPa South 1.6 km/h 1.6 km/h 100 % 35.81 mm
14:44 23.8 °C 23.8 °C 1012.1 hPa Calm   3.2 km/h 100 % 37.85 mm
14:49 23.9 °C 23.9 °C 1012.4 hPa South 11.3 km/h 4.8 km/h 100 % 40.39 mm
14:54 24.1 °C 24.1 °C 1012.1 hPa South 16.1 km/h 14.5 km/h 100 % 40.13 mm
14:59 23.6 °C 23.6 °C 1012.1 hPa South 11.3 km/h 19.3 km/h 100 % 33.53 mm
15:04 23.1 °C 23.1 °C 1011.4 hPa SSE 8 km/h 19.3 km/h 100 % 24.89 mm
15:09 23 °C 23 °C 1011.4 hPa ESE 1.6 km/h 19.3 km/h 100 % 19.05 mm
15:14 23.1 °C 23.1 °C 1011.7 hPa SSW 3.2 km/h 16.1 km/h 100 % 13.21 mm
15:19 23.1 °C 23.1 °C 1011.7 hPa Calm   14.5 km/h 100 % 12.19 mm
15:24 23.3 °C 23.3 °C 1011.4 hPa Calm   8 km/h 100 % 10.92 mm
15:29 23.4 °C 23.4 °C 1011.4 hPa Calm   4.8 km/h 100 % 10.67 mm
15:34 23.3 °C 23.3 °C 1011.7 hPa Calm   4.8 km/h 100 % 10.92 mm
15:39 23.3 °C 23.3 °C 1011.7 hPa SSE 3.2 km/h 9.7 km/h 100 % 10.41 mm
15:44 23.3 °C 23.3 °C 1011.7 hPa SW 4.8 km/h 11.3 km/h 100 % 8.13 mm
15:49 23.4 °C 23.4 °C 1011.7 hPa Calm   11.3 km/h 100 % 6.35 mm
15:54 23.5 °C 23.5 °C 1011.4 hPa Calm   11.3 km/h 100 % 6.35 mm
15:59 23.6 °C 23.6 °C 1011.1 hPa East 1.6 km/h 9.7 km/h 100 % 6.35 mm
16:04 23.6 °C 23.6 °C 1011.1 hPa Calm   4.8 km/h 100 % 5.33 mm
16:09 23.6 °C 23.6 °C 1011.1 hPa Calm   3.2 km/h 100 % 2.79 mm
16:14 23.6 °C 23.6 °C 1011.1 hPa SSE 3.2 km/h 3.2 km/h 100 % 2.29 mm
16:19 23.5 °C 23.5 °C 1011.1 hPa SSE 3.2 km/h 4.8 km/h 100 % 2.29 mm
16:24 23.6 °C 23.6 °C 1011.1 hPa ESE 3.2 km/h 6.4 km/h 100 % 2.29 mm
16:29 23.5 °C 23.5 °C 1011.1 hPa ESE 3.2 km/h 6.4 km/h 100 % 2.54 mm
16:34 23.6 °C 23.6 °C 1011.4 hPa SE 1.6 km/h 6.4 km/h 100 % 2.54 mm
16:39 23.6 °C 23.6 °C 1011.4 hPa Calm   4.8 km/h 100 % 2.79 mm
16:44 23.6 °C 23.6 °C 1011.1 hPa Calm   4.8 km/h 100 % 2.79 mm
16:49 23.6 °C 23.6 °C 1011.1 hPa East 1.6 km/h 4.8 km/h 100 % 2.79 mm
16:54 23.4 °C 23.4 °C 1011.1 hPa SSE 1.6 km/h 4.8 km/h 100 % 2.54 mm
16:59 23.5 °C 23.5 °C 1011.1 hPa East 3.2 km/h 4.8 km/h 100 % 2.29 mm
17:04 23.4 °C 23.4 °C 1011.1 hPa SE 1.6 km/h 4.8 km/h 100 % 2.29 mm
17:09 23.4 °C 23.4 °C 1011.1 hPa ENE 4.8 km/h 4.8 km/h 100 % 2.29 mm
17:14 23.4 °C 23.4 °C 1011.1 hPa Calm   4.8 km/h 100 % 2.03 mm
17:19 23.4 °C 23.4 °C 1011.1 hPa ESE 3.2 km/h 4.8 km/h 100 % 2.03 mm
17:24 23.4 °C 23.4 °C 1011.1 hPa Calm   4.8 km/h 100 % 2.03 mm
17:29 23.4 °C 23.4 °C 1011.1 hPa Calm   4.8 km/h 100 % 1.78 mm
17:34 23.4 °C 23.4 °C 1011.1 hPa Calm   3.2 km/h 100 % 1.52 mm
17:39 23.5 °C 23.5 °C 1011.4 hPa ESE 1.6 km/h 4.8 km/h 100 % 1.27 mm
17:44 23.5 °C 23.5 °C 1011.4 hPa SE 3.2 km/h 4.8 km/h 100 % 1.02 mm
17:49 23.6 °C 23.6 °C 1011.4 hPa South 1.6 km/h 4.8 km/h 100 % 0.76 mm
17:54 23.6 °C 23.6 °C 1011.4 hPa SE 1.6 km/h 4.8 km/h 100 % 0.51 mm
17:59 23.6 °C 23.6 °C 1011.4 hPa East 3.2 km/h 8 km/h 100 % 0.76 mm
18:04 23.6 °C 23.6 °C 1011.1 hPa SSE 3.2 km/h 8 km/h 100 % 0.51 mm
18:09 23.6 °C 23.6 °C 1011.1 hPa East 3.2 km/h 8 km/h 100 % 0.51 mm
18:14 23.4 °C 23.4 °C 1011.1 hPa SE 3.2 km/h 6.4 km/h 100 % 0.51 mm
18:19 23.4 °C 23.4 °C 1011.1 hPa SE 1.6 km/h 8 km/h 100 % 0.51 mm
18:24 23.5 °C 23.5 °C 1011.1 hPa Calm   8 km/h 100 % 0.25 mm
18:29 23.5 °C 23.5 °C 1011.1 hPa SE 1.6 km/h 8 km/h 100 % 0.25 mm
18:34 23.4 °C 23.4 °C 1011.1 hPa ESE 1.6 km/h 4.8 km/h 100 % 0.25 mm
18:39 23.5 °C 23.5 °C 1011.1 hPa SE 1.6 km/h 6.4 km/h 100 % 0.25 mm
18:44 23.5 °C 23.5 °C 1011.1 hPa Calm   6.4 km/h 100 % 0.25 mm
18:49 23.6 °C 23.6 °C 1011.1 hPa Calm   6.4 km/h 100 % 0.25 mm
18:54 23.7 °C 23.7 °C 1011.1 hPa SE 1.6 km/h 3.2 km/h 100 % 0.25 mm
18:59 23.6 °C 23.6 °C 1011.1 hPa Calm   4.8 km/h 100 % 0 mm
19:04 23.7 °C 23.7 °C 1011.1 hPa Calm   4.8 km/h 100 % 0 mm
19:09 23.7 °C 23.7 °C 1011.1 hPa SE 1.6 km/h 4.8 km/h 100 % 0 mm
19:14 23.7 °C 23.7 °C 1011.1 hPa Calm   3.2 km/h 100 % 0 mm
19:19 23.7 °C 23.7 °C 1011.1 hPa Calm   3.2 km/h 100 % 0 mm
19:24 23.7 °C 23.7 °C 1011.1 hPa SE 1.6 km/h 3.2 km/h 100 % 0 mm
19:29 23.7 °C 23.7 °C 1011.1 hPa SE 3.2 km/h 4.8 km/h 100 % 0 mm
19:34 23.7 °C 23.7 °C 1011.1 hPa ESE 1.6 km/h 6.4 km/h 100 % 0 mm
19:39 23.7 °C 23.7 °C 1011.1 hPa SE 3.2 km/h 6.4 km/h 100 % 0 mm
19:44 23.7 °C 23.7 °C 1011.1 hPa SE 1.6 km/h 6.4 km/h 100 % 0 mm
19:49 23.7 °C 23.7 °C 1011.1 hPa East 3.2 km/h 6.4 km/h 100 % 0 mm
19:54 23.7 °C 23.7 °C 1011.1 hPa SE 3.2 km/h 6.4 km/h 100 % 0 mm
19:59 23.7 °C 23.7 °C 1011.1 hPa ESE 1.6 km/h 6.4 km/h 100 % 0 mm
20:04 23.7 °C 23.7 °C 1011.1 hPa Calm   6.4 km/h 100 % 0 mm
20:09 23.7 °C 23.7 °C 1011.1 hPa Calm   4.8 km/h 100 % 0 mm
20:14 23.7 °C 23.7 °C 1011.1 hPa SE 1.6 km/h 4.8 km/h 100 % 0 mm
20:19 23.7 °C 23.7 °C 1011.1 hPa Calm   3.2 km/h 100 % 0 mm
20:24 23.7 °C 23.7 °C 1011.1 hPa Calm   3.2 km/h 100 % 0 mm
20:29 23.7 °C 23.7 °C 1011.1 hPa Calm   1.6 km/h 100 % 0 mm
20:34 23.7 °C 23.7 °C 1011.1 hPa Calm   1.6 km/h 100 % 0 mm
20:39 23.6 °C 23.6 °C 1011.4 hPa SE 1.6 km/h 1.6 km/h 100 % 0 mm
20:44 23.6 °C 23.6 °C 1011.4 hPa Calm   1.6 km/h 100 % 0 mm
20:49 23.7 °C 23.7 °C 1011.4 hPa Calm   3.2 km/h 100 % 0 mm
20:54 23.6 °C 23.6 °C 1011.4 hPa Calm   3.2 km/h 100 % 0 mm
20:59 23.6 °C 23.6 °C 1011.4 hPa Calm   3.2 km/h 100 % 0 mm
21:04 23.6 °C 23.6 °C 1011.7 hPa Calm   1.6 km/h 100 % 0 mm
21:09 23.6 °C 23.6 °C 1011.7 hPa Calm     100 % 0 mm
21:14 23.6 °C 23.6 °C 1011.7 hPa Calm   1.6 km/h 100 % 0 mm
21:19 23.7 °C 23.7 °C 1011.7 hPa Calm   1.6 km/h 100 % 0 mm
21:24 23.7 °C 23.7 °C 1011.7 hPa Calm   1.6 km/h 100 % 0 mm
21:29 23.7 °C 23.7 °C 1011.7 hPa Calm     100 % 0 mm
21:34 23.8 °C 23.8 °C 1011.7 hPa Calm   1.6 km/h 100 % 0 mm
21:39 23.8 °C 23.8 °C 1011.7 hPa Calm   1.6 km/h 100 % 0 mm
21:44 23.8 °C 23.8 °C 1012.1 hPa Calm   1.6 km/h 100 % 0 mm
21:49 23.8 °C 23.8 °C 1012.1 hPa SSE 1.6 km/h 3.2 km/h 100 % 0 mm
21:54 23.8 °C 23.8 °C 1012.1 hPa ESE 1.6 km/h 3.2 km/h 100 % 0 mm
21:59 23.8 °C 23.8 °C 1011.7 hPa Calm   3.2 km/h 100 % 0 mm
22:04 23.9 °C 23.9 °C 1012.1 hPa Calm   3.2 km/h 100 % 0 mm
22:09 23.9 °C 23.9 °C 1012.1 hPa SE 1.6 km/h 3.2 km/h 100 % 0 mm
22:14 23.9 °C 23.9 °C 1012.1 hPa Calm   3.2 km/h 100 % 0 mm
22:19 23.9 °C 23.9 °C 1012.1 hPa Calm   3.2 km/h 100 % 0 mm
22:24 23.9 °C 23.9 °C 1012.1 hPa Calm   3.2 km/h 100 % 0 mm
22:29 24 °C 24 °C 1011.7 hPa SE 1.6 km/h 1.6 km/h 100 % 0 mm
22:34 24.1 °C 24.1 °C 1012.1 hPa Calm   1.6 km/h 100 % 0 mm
22:39 24.1 °C 24.1 °C 1012.1 hPa SE 1.6 km/h 3.2 km/h 100 % 0 mm
22:44 24.1 °C 24.1 °C 1012.1 hPa Calm   3.2 km/h 100 % 0 mm
22:49 24.1 °C 24.1 °C 1012.1 hPa Calm   3.2 km/h 100 % 0 mm
22:54 24.1 °C 24.1 °C 1012.1 hPa Calm   1.6 km/h 100 % 0 mm
22:59 24.1 °C 24.1 °C 1012.1 hPa Calm   1.6 km/h 100 % 0 mm
23:04 24.2 °C 24.2 °C 1012.1 hPa Calm   1.6 km/h 100 % 0 mm
Spring, Texas: Villages of Bridgestone
Compliments of Weather Underground - 2.75 mb

Script developed by  Jim McMurry - jmcmurry@mwt.net Adapted for the template by  Wim van der Kuil - Leuven-Template.eu

You find our weather info also at:

UK Metoffice

WeatherCloud

Weather Underground

Mid-South Weather Network

AWEKAS

Citizen Weather Observer Program (CWOP)

HAMweather, WeatherForYou, PWS Weather

Equipment we use:

Weather-station
Davis Vantage Vue

Weather-program
Meteohub

Weather-server
Debian 7.9 x86 (Guest)

Provider
DreamHost

Davis Vantage Vue

Meteohub

Debian 7.9 x86 (Guest)

DreamHost